sensor_id;sensor_type;location;lat;lon;timestamp;temperature;humidity
52187;DHT22;38161;53.020;6.598;2022-12-18T00:01:19;-4.00;99.90
52187;DHT22;38161;53.020;6.598;2022-12-18T00:03:46;-4.60;99.90
52187;DHT22;38161;53.020;6.598;2022-12-18T00:06:12;-2.80;99.90
52187;DHT22;38161;53.020;6.598;2022-12-18T00:08:39;-4.10;99.90
52187;DHT22;38161;53.020;6.598;2022-12-18T00:11:10;-4.10;99.90
52187;DHT22;38161;53.020;6.598;2022-12-18T00:13:36;-4.10;99.90
52187;DHT22;38161;53.020;6.598;2022-12-18T00:16:11;-4.10;99.90
52187;DHT22;38161;53.020;6.598;2022-12-18T00:18:37;-4.10;99.90
52187;DHT22;38161;53.020;6.598;2022-12-18T00:21:05;-4.00;99.90
52187;DHT22;38161;53.020;6.598;2022-12-18T00:23:32;-4.00;99.90
52187;DHT22;38161;53.020;6.598;2022-12-18T00:26:03;-4.10;99.90
52187;DHT22;38161;53.020;6.598;2022-12-18T00:28:29;-4.10;99.90
52187;DHT22;38161;53.020;6.598;2022-12-18T00:31:06;-4.10;99.90
52187;DHT22;38161;53.020;6.598;2022-12-18T00:33:32;-4.10;99.90
52187;DHT22;38161;53.020;6.598;2022-12-18T00:36:27;-4.10;99.90
52187;DHT22;38161;53.020;6.598;2022-12-18T00:38:53;-4.10;99.90
52187;DHT22;38161;53.020;6.598;2022-12-18T00:41:19;-4.20;99.90
52187;DHT22;38161;53.020;6.598;2022-12-18T00:44:05;-4.20;99.90
52187;DHT22;38161;53.020;6.598;2022-12-18T00:46:31;-4.30;99.90
52187;DHT22;38161;53.020;6.598;2022-12-18T00:48:58;-4.30;99.90
52187;DHT22;38161;53.020;6.598;2022-12-18T00:51:24;-4.30;99.90
52187;DHT22;38161;53.020;6.598;2022-12-18T00:53:50;-4.30;99.90
52187;DHT22;38161;53.020;6.598;2022-12-18T00:56:16;-4.30;99.90
52187;DHT22;38161;53.020;6.598;2022-12-18T00:58:41;-4.30;99.90
52187;DHT22;38161;53.020;6.598;2022-12-18T01:01:07;-4.40;99.90
52187;DHT22;38161;53.020;6.598;2022-12-18T01:03:33;-4.40;99.90
52187;DHT22;38161;53.020;6.598;2022-12-18T01:05:59;-4.40;99.90
52187;DHT22;38161;53.020;6.598;2022-12-18T01:08:25;-4.40;99.90
52187;DHT22;38161;53.020;6.598;2022-12-18T01:10:51;-4.40;99.90
52187;DHT22;38161;53.020;6.598;2022-12-18T01:13:16;-4.10;99.90
52187;DHT22;38161;53.020;6.598;2022-12-18T01:15:51;-4.50;99.90
52187;DHT22;38161;53.020;6.598;2022-12-18T01:18:17;-4.50;99.90
52187;DHT22;38161;53.020;6.598;2022-12-18T01:20:43;-4.60;99.90
52187;DHT22;38161;53.020;6.598;2022-12-18T01:23:08;-4.50;99.90
52187;DHT22;38161;53.020;6.598;2022-12-18T01:25:36;-4.50;99.90
52187;DHT22;38161;53.020;6.598;2022-12-18T01:28:02;-4.50;99.90
52187;DHT22;38161;53.020;6.598;2022-12-18T01:30:28;-4.50;99.90
52187;DHT22;38161;53.020;6.598;2022-12-18T01:32:54;-4.50;99.90
52187;DHT22;38161;53.020;6.598;2022-12-18T01:35:19;-4.50;99.90
52187;DHT22;38161;53.020;6.598;2022-12-18T01:37:45;-4.60;99.90
52187;DHT22;38161;53.020;6.598;2022-12-18T01:40:11;-4.50;99.90
52187;DHT22;38161;53.020;6.598;2022-12-18T01:42:37;-4.60;99.90
52187;DHT22;38161;53.020;6.598;2022-12-18T01:45:08;-4.60;99.90
52187;DHT22;38161;53.020;6.598;2022-12-18T01:47:49;-4.60;99.90
52187;DHT22;38161;53.020;6.598;2022-12-18T01:50:17;-4.50;99.90
52187;DHT22;38161;53.020;6.598;2022-12-18T01:52:46;-4.50;99.90
52187;DHT22;38161;53.020;6.598;2022-12-18T01:55:16;-4.60;99.90
52187;DHT22;38161;53.020;6.598;2022-12-18T01:57:42;-4.60;99.90
52187;DHT22;38161;53.020;6.598;2022-12-18T02:00:14;-4.60;99.90
52187;DHT22;38161;53.020;6.598;2022-12-18T02:02:41;-4.60;99.90
52187;DHT22;38161;53.020;6.598;2022-12-18T02:05:09;-4.70;99.90
52187;DHT22;38161;53.020;6.598;2022-12-18T02:18:36;-4.70;99.90
52187;DHT22;38161;53.020;6.598;2022-12-18T02:21:23;-4.70;99.90
52187;DHT22;38161;53.020;6.598;2022-12-18T02:29:18;-4.70;99.90
52187;DHT22;38161;53.020;6.598;2022-12-18T02:31:51;-4.70;99.90
52187;DHT22;38161;53.020;6.598;2022-12-18T02:34:18;-4.70;99.90
52187;DHT22;38161;53.020;6.598;2022-12-18T02:36:46;-4.70;99.90
52187;DHT22;38161;53.020;6.598;2022-12-18T02:39:14;-4.70;99.90
52187;DHT22;38161;53.020;6.598;2022-12-18T02:41:41;-4.80;99.90
52187;DHT22;38161;53.020;6.598;2022-12-18T02:44:12;-4.80;99.90
52187;DHT22;38161;53.020;6.598;2022-12-18T02:46:41;-4.80;99.90
52187;DHT22;38161;53.020;6.598;2022-12-18T02:51:52;-4.80;99.90
52187;DHT22;38161;53.020;6.598;2022-12-18T02:54:38;-4.90;99.90
52187;DHT22;38161;53.020;6.598;2022-12-18T02:57:37;-4.90;99.90
52187;DHT22;38161;53.020;6.598;2022-12-18T03:00:11;-4.90;99.90
52187;DHT22;38161;53.020;6.598;2022-12-18T03:05:27;-4.90;99.90
52187;DHT22;38161;53.020;6.598;2022-12-18T03:08:03;-4.90;99.90
52187;DHT22;38161;53.020;6.598;2022-12-18T03:10:35;-4.90;99.90
52187;DHT22;38161;53.020;6.598;2022-12-18T03:13:07;-4.70;99.90
52187;DHT22;38161;53.020;6.598;2022-12-18T03:15:41;-5.00;99.90
52187;DHT22;38161;53.020;6.598;2022-12-18T03:18:17;-5.00;99.90
52187;DHT22;38161;53.020;6.598;2022-12-18T03:20:46;-5.10;99.90
52187;DHT22;38161;53.020;6.598;2022-12-18T03:23:18;-5.10;99.90
52187;DHT22;38161;53.020;6.598;2022-12-18T03:25:45;-5.10;99.90
52187;DHT22;38161;53.020;6.598;2022-12-18T03:28:15;-5.10;99.90
52187;DHT22;38161;53.020;6.598;2022-12-18T03:30:43;-5.10;99.90
52187;DHT22;38161;53.020;6.598;2022-12-18T03:33:25;-5.10;99.90
52187;DHT22;38161;53.020;6.598;2022-12-18T03:35:52;-5.20;99.90
52187;DHT22;38161;53.020;6.598;2022-12-18T03:38:17;-5.20;99.90
52187;DHT22;38161;53.020;6.598;2022-12-18T03:41:10;-5.00;99.90
52187;DHT22;38161;53.020;6.598;2022-12-18T03:43:52;-5.30;99.90
52187;DHT22;38161;53.020;6.598;2022-12-18T03:46:28;-5.30;99.90
52187;DHT22;38161;53.020;6.598;2022-12-18T03:52:09;-5.30;99.90
52187;DHT22;38161;53.020;6.598;2022-12-18T03:54:37;-5.40;99.90
52187;DHT22;38161;53.020;6.598;2022-12-18T03:57:14;-5.50;99.90
52187;DHT22;38161;53.020;6.598;2022-12-18T03:59:40;-5.50;99.90
52187;DHT22;38161;53.020;6.598;2022-12-18T04:02:07;-5.60;99.90
52187;DHT22;38161;53.020;6.598;2022-12-18T04:04:35;-5.60;99.90
52187;DHT22;38161;53.020;6.598;2022-12-18T04:07:04;-5.60;99.90
52187;DHT22;38161;53.020;6.598;2022-12-18T04:09:30;-5.70;99.90
52187;DHT22;38161;53.020;6.598;2022-12-18T04:11:57;-5.70;99.90
52187;DHT22;38161;53.020;6.598;2022-12-18T04:14:22;-5.70;99.90
52187;DHT22;38161;53.020;6.598;2022-12-18T04:16:48;-5.70;99.90
52187;DHT22;38161;53.020;6.598;2022-12-18T04:19:14;-5.70;99.90
52187;DHT22;38161;53.020;6.598;2022-12-18T04:21:40;-5.70;99.90
52187;DHT22;38161;53.020;6.598;2022-12-18T04:24:05;-5.70;99.90
52187;DHT22;38161;53.020;6.598;2022-12-18T04:26:31;-5.70;99.90
52187;DHT22;38161;53.020;6.598;2022-12-18T04:28:57;-5.70;99.90
52187;DHT22;38161;53.020;6.598;2022-12-18T04:31:23;-5.70;99.90
52187;DHT22;38161;53.020;6.598;2022-12-18T04:33:48;-5.70;99.90
52187;DHT22;38161;53.020;6.598;2022-12-18T04:36:14;-5.70;99.90
52187;DHT22;38161;53.020;6.598;2022-12-18T04:38:40;-5.70;99.90
52187;DHT22;38161;53.020;6.598;2022-12-18T04:41:06;-5.70;99.90
52187;DHT22;38161;53.020;6.598;2022-12-18T04:43:31;-5.70;99.90
52187;DHT22;38161;53.020;6.598;2022-12-18T04:46:16;-5.70;99.90
52187;DHT22;38161;53.020;6.598;2022-12-18T04:48:42;-5.80;99.90
52187;DHT22;38161;53.020;6.598;2022-12-18T04:51:07;-5.80;99.90
52187;DHT22;38161;53.020;6.598;2022-12-18T04:53:33;-5.80;99.90
52187;DHT22;38161;53.020;6.598;2022-12-18T04:56:10;-5.80;99.90
52187;DHT22;38161;53.020;6.598;2022-12-18T04:58:38;-5.70;99.90
52187;DHT22;38161;53.020;6.598;2022-12-18T05:01:04;-5.70;99.90
52187;DHT22;38161;53.020;6.598;2022-12-18T05:03:30;-5.80;99.90
52187;DHT22;38161;53.020;6.598;2022-12-18T05:05:56;-5.70;99.90
52187;DHT22;38161;53.020;6.598;2022-12-18T05:08:21;-5.70;99.90
52187;DHT22;38161;53.020;6.598;2022-12-18T05:10:47;-5.70;99.90
52187;DHT22;38161;53.020;6.598;2022-12-18T05:13:13;-5.80;99.90
52187;DHT22;38161;53.020;6.598;2022-12-18T05:15:39;-5.80;99.90
52187;DHT22;38161;53.020;6.598;2022-12-18T05:18:05;-5.80;99.90
52187;DHT22;38161;53.020;6.598;2022-12-18T05:20:31;-5.70;99.90
52187;DHT22;38161;53.020;6.598;2022-12-18T05:22:57;-5.80;99.90
52187;DHT22;38161;53.020;6.598;2022-12-18T05:25:25;-5.80;99.90
52187;DHT22;38161;53.020;6.598;2022-12-18T05:27:50;-5.80;99.90
52187;DHT22;38161;53.020;6.598;2022-12-18T05:30:16;-5.80;99.90
52187;DHT22;38161;53.020;6.598;2022-12-18T05:32:42;-5.80;99.90
52187;DHT22;38161;53.020;6.598;2022-12-18T05:35:09;-5.80;99.90
52187;DHT22;38161;53.020;6.598;2022-12-18T05:37:35;-5.80;99.90
52187;DHT22;38161;53.020;6.598;2022-12-18T05:40:02;-5.90;99.90
52187;DHT22;38161;53.020;6.598;2022-12-18T05:42:28;-5.90;99.90
52187;DHT22;38161;53.020;6.598;2022-12-18T05:44:54;-6.00;99.90
52187;DHT22;38161;53.020;6.598;2022-12-18T05:47:20;-6.00;99.90
52187;DHT22;38161;53.020;6.598;2022-12-18T05:49:45;-6.00;99.90
52187;DHT22;38161;53.020;6.598;2022-12-18T05:52:11;-6.00;99.90
52187;DHT22;38161;53.020;6.598;2022-12-18T05:54:37;-6.00;99.90
52187;DHT22;38161;53.020;6.598;2022-12-18T05:57:02;-6.00;99.90
52187;DHT22;38161;53.020;6.598;2022-12-18T05:59:28;-6.00;99.90
52187;DHT22;38161;53.020;6.598;2022-12-18T06:01:54;-5.50;99.90
52187;DHT22;38161;53.020;6.598;2022-12-18T06:04:19;-5.40;99.90
52187;DHT22;38161;53.020;6.598;2022-12-18T06:06:45;-6.10;99.90
52187;DHT22;38161;53.020;6.598;2022-12-18T06:09:11;-6.10;99.90
52187;DHT22;38161;53.020;6.598;2022-12-18T06:11:37;-6.10;99.90
52187;DHT22;38161;53.020;6.598;2022-12-18T06:14:05;-5.50;99.90
52187;DHT22;38161;53.020;6.598;2022-12-18T06:16:31;-6.10;99.90
52187;DHT22;38161;53.020;6.598;2022-12-18T06:18:58;-6.10;99.90
52187;DHT22;38161;53.020;6.598;2022-12-18T06:21:24;-6.10;99.90
52187;DHT22;38161;53.020;6.598;2022-12-18T06:23:49;-6.10;99.90
52187;DHT22;38161;53.020;6.598;2022-12-18T06:26:15;-6.10;99.90
52187;DHT22;38161;53.020;6.598;2022-12-18T06:28:41;-6.10;99.90
52187;DHT22;38161;53.020;6.598;2022-12-18T06:31:08;-6.10;99.90
52187;DHT22;38161;53.020;6.598;2022-12-18T06:33:34;-6.10;99.90
52187;DHT22;38161;53.020;6.598;2022-12-18T06:36:12;-6.20;99.90
52187;DHT22;38161;53.020;6.598;2022-12-18T06:38:40;-6.20;99.90
52187;DHT22;38161;53.020;6.598;2022-12-18T06:41:07;-6.30;99.90
52187;DHT22;38161;53.020;6.598;2022-12-18T06:43:33;-6.30;99.90
52187;DHT22;38161;53.020;6.598;2022-12-18T06:46:01;-6.40;99.90
52187;DHT22;38161;53.020;6.598;2022-12-18T06:48:27;-6.40;99.90
52187;DHT22;38161;53.020;6.598;2022-12-18T06:50:53;-6.40;99.90
52187;DHT22;38161;53.020;6.598;2022-12-18T06:53:18;-6.40;99.90
52187;DHT22;38161;53.020;6.598;2022-12-18T06:55:44;-6.50;99.90
52187;DHT22;38161;53.020;6.598;2022-12-18T06:58:09;-6.50;99.90
52187;DHT22;38161;53.020;6.598;2022-12-18T07:00:35;-6.50;99.90
52187;DHT22;38161;53.020;6.598;2022-12-18T07:03:01;-6.50;99.90
52187;DHT22;38161;53.020;6.598;2022-12-18T07:05:27;-6.50;99.90
52187;DHT22;38161;53.020;6.598;2022-12-18T07:07:52;-6.50;99.90
52187;DHT22;38161;53.020;6.598;2022-12-18T07:10:18;-6.50;99.90
52187;DHT22;38161;53.020;6.598;2022-12-18T07:12:44;-6.60;99.90
52187;DHT22;38161;53.020;6.598;2022-12-18T07:15:10;-6.60;99.90
52187;DHT22;38161;53.020;6.598;2022-12-18T07:17:35;-6.60;99.90
52187;DHT22;38161;53.020;6.598;2022-12-18T07:20:01;-6.70;99.90
52187;DHT22;38161;53.020;6.598;2022-12-18T07:22:27;-6.70;99.90
52187;DHT22;38161;53.020;6.598;2022-12-18T07:24:53;-6.80;99.90
52187;DHT22;38161;53.020;6.598;2022-12-18T07:27:19;-6.70;99.90
52187;DHT22;38161;53.020;6.598;2022-12-18T07:29:44;-6.70;99.90
52187;DHT22;38161;53.020;6.598;2022-12-18T07:32:10;-6.80;99.90
52187;DHT22;38161;53.020;6.598;2022-12-18T07:34:36;-6.70;99.90
52187;DHT22;38161;53.020;6.598;2022-12-18T07:37:01;-6.80;99.90
52187;DHT22;38161;53.020;6.598;2022-12-18T07:39:27;-6.80;99.90
52187;DHT22;38161;53.020;6.598;2022-12-18T07:41:53;-6.80;99.90
52187;DHT22;38161;53.020;6.598;2022-12-18T07:45:00;-6.60;99.90
52187;DHT22;38161;53.020;6.598;2022-12-18T07:47:27;-6.80;99.90
52187;DHT22;38161;53.020;6.598;2022-12-18T07:49:53;-6.10;99.90
52187;DHT22;38161;53.020;6.598;2022-12-18T07:52:19;-6.80;99.90
52187;DHT22;38161;53.020;6.598;2022-12-18T07:54:45;-6.80;99.90
52187;DHT22;38161;53.020;6.598;2022-12-18T07:57:11;-6.80;99.90
52187;DHT22;38161;53.020;6.598;2022-12-18T07:59:37;-6.80;99.90
52187;DHT22;38161;53.020;6.598;2022-12-18T08:02:02;-6.80;99.90
52187;DHT22;38161;53.020;6.598;2022-12-18T08:04:28;-6.80;99.90
52187;DHT22;38161;53.020;6.598;2022-12-18T08:06:57;-6.80;99.90
52187;DHT22;38161;53.020;6.598;2022-12-18T08:09:22;-6.80;99.90
52187;DHT22;38161;53.020;6.598;2022-12-18T08:11:48;-6.80;99.90
52187;DHT22;38161;53.020;6.598;2022-12-18T08:14:14;-6.80;99.90
52187;DHT22;38161;53.020;6.598;2022-12-18T08:16:40;-6.80;99.90
52187;DHT22;38161;53.020;6.598;2022-12-18T08:19:05;-6.70;99.90
52187;DHT22;38161;53.020;6.598;2022-12-18T08:21:31;-6.10;99.90
52187;DHT22;38161;53.020;6.598;2022-12-18T08:23:59;-6.70;99.90
52187;DHT22;38161;53.020;6.598;2022-12-18T08:26:27;-6.60;99.90
52187;DHT22;38161;53.020;6.598;2022-12-18T08:28:54;-6.60;99.90
52187;DHT22;38161;53.020;6.598;2022-12-18T08:31:21;-6.50;99.90
52187;DHT22;38161;53.020;6.598;2022-12-18T08:33:50;-6.50;99.90
52187;DHT22;38161;53.020;6.598;2022-12-18T08:36:16;-6.50;99.90
52187;DHT22;38161;53.020;6.598;2022-12-18T08:38:41;-6.40;99.90
52187;DHT22;38161;53.020;6.598;2022-12-18T08:41:12;-6.30;99.90
52187;DHT22;38161;53.020;6.598;2022-12-18T08:43:38;-6.20;99.90
52187;DHT22;38161;53.020;6.598;2022-12-18T08:46:24;-6.20;99.90
52187;DHT22;38161;53.020;6.598;2022-12-18T08:48:51;-6.10;99.90
52187;DHT22;38161;53.020;6.598;2022-12-18T08:51:17;-6.10;99.90
52187;DHT22;38161;53.020;6.598;2022-12-18T08:53:44;-6.00;99.90
52187;DHT22;38161;53.020;6.598;2022-12-18T08:56:10;-6.00;99.90
52187;DHT22;38161;53.020;6.598;2022-12-18T08:58:36;-6.00;99.90
52187;DHT22;38161;53.020;6.598;2022-12-18T09:01:07;-5.90;99.90
52187;DHT22;38161;53.020;6.598;2022-12-18T09:03:35;-5.80;99.90
52187;DHT22;38161;53.020;6.598;2022-12-18T09:06:01;-5.80;99.90
52187;DHT22;38161;53.020;6.598;2022-12-18T09:08:27;-5.70;99.90
52187;DHT22;38161;53.020;6.598;2022-12-18T09:10:53;-5.70;99.90
52187;DHT22;38161;53.020;6.598;2022-12-18T09:13:20;-5.60;99.90
52187;DHT22;38161;53.020;6.598;2022-12-18T09:15:53;-5.50;99.90
52187;DHT22;38161;53.020;6.598;2022-12-18T09:18:21;-5.40;99.90
52187;DHT22;38161;53.020;6.598;2022-12-18T09:20:47;-5.40;99.90
52187;DHT22;38161;53.020;6.598;2022-12-18T09:23:13;-5.30;99.90
52187;DHT22;38161;53.020;6.598;2022-12-18T09:25:39;-5.20;99.90
52187;DHT22;38161;53.020;6.598;2022-12-18T09:28:10;-5.10;99.90
52187;DHT22;38161;53.020;6.598;2022-12-18T09:30:41;-5.10;99.90
52187;DHT22;38161;53.020;6.598;2022-12-18T09:33:07;-5.10;99.90
52187;DHT22;38161;53.020;6.598;2022-12-18T09:35:36;-4.90;99.90
52187;DHT22;38161;53.020;6.598;2022-12-18T09:38:02;-5.40;99.90
52187;DHT22;38161;53.020;6.598;2022-12-18T09:40:34;-4.80;99.90
52187;DHT22;38161;53.020;6.598;2022-12-18T09:43:04;-4.70;99.90
52187;DHT22;38161;53.020;6.598;2022-12-18T09:45:40;-4.50;99.90
52187;DHT22;38161;53.020;6.598;2022-12-18T09:48:16;-4.40;99.90
52187;DHT22;38161;53.020;6.598;2022-12-18T09:50:44;-4.30;99.90
52187;DHT22;38161;53.020;6.598;2022-12-18T09:53:17;-4.10;99.90
52187;DHT22;38161;53.020;6.598;2022-12-18T09:55:46;-4.10;99.90
52187;DHT22;38161;53.020;6.598;2022-12-18T10:00:55;-3.80;99.90
52187;DHT22;38161;53.020;6.598;2022-12-18T10:03:21;-3.70;99.90
52187;DHT22;38161;53.020;6.598;2022-12-18T10:11:47;-2.60;99.90
52187;DHT22;38161;53.020;6.598;2022-12-18T10:20:05;-2.50;99.90
52187;DHT22;38161;53.020;6.598;2022-12-18T10:28:23;-2.50;99.90
52187;DHT22;38161;53.020;6.598;2022-12-18T10:30:50;-2.50;99.90
52187;DHT22;38161;53.020;6.598;2022-12-18T10:33:21;-2.40;99.90
52187;DHT22;38161;53.020;6.598;2022-12-18T10:35:51;-2.50;99.90
52187;DHT22;38161;53.020;6.598;2022-12-18T10:41:23;-2.50;99.90
52187;DHT22;38161;53.020;6.598;2022-12-18T10:46:36;-2.40;99.90
52187;DHT22;38161;53.020;6.598;2022-12-18T10:49:02;-2.40;99.90
52187;DHT22;38161;53.020;6.598;2022-12-18T10:51:31;-2.40;99.90
52187;DHT22;38161;53.020;6.598;2022-12-18T10:54:06;-2.40;99.90
52187;DHT22;38161;53.020;6.598;2022-12-18T10:56:38;-2.40;99.90
52187;DHT22;38161;53.020;6.598;2022-12-18T10:59:06;-2.40;99.90
52187;DHT22;38161;53.020;6.598;2022-12-18T11:01:51;-2.50;99.90
52187;DHT22;38161;53.020;6.598;2022-12-18T11:04:37;-2.50;99.90
52187;DHT22;38161;53.020;6.598;2022-12-18T11:07:15;-2.50;99.90
52187;DHT22;38161;53.020;6.598;2022-12-18T11:09:40;-1.50;99.90
52187;DHT22;38161;53.020;6.598;2022-12-18T11:12:17;-2.60;99.90
52187;DHT22;38161;53.020;6.598;2022-12-18T11:14:51;-2.60;99.90
52187;DHT22;38161;53.020;6.598;2022-12-18T11:19:45;-2.50;99.90
52187;DHT22;38161;53.020;6.598;2022-12-18T11:27:38;-2.60;99.90
52187;DHT22;38161;53.020;6.598;2022-12-18T11:30:21;-2.60;99.90
52187;DHT22;38161;53.020;6.598;2022-12-18T11:32:49;-2.60;99.90
52187;DHT22;38161;53.020;6.598;2022-12-18T11:38:04;-2.60;99.90
52187;DHT22;38161;53.020;6.598;2022-12-18T11:40:40;-2.60;99.90
52187;DHT22;38161;53.020;6.598;2022-12-18T11:43:14;-2.60;99.90
52187;DHT22;38161;53.020;6.598;2022-12-18T11:45:50;-2.60;99.90
52187;DHT22;38161;53.020;6.598;2022-12-18T11:48:30;-2.60;99.90
52187;DHT22;38161;53.020;6.598;2022-12-18T11:51:00;-2.60;99.90
52187;DHT22;38161;53.020;6.598;2022-12-18T11:53:27;-2.60;99.90
52187;DHT22;38161;53.020;6.598;2022-12-18T12:01:46;-2.60;99.90
52187;DHT22;38161;53.020;6.598;2022-12-18T12:07:20;-2.60;99.90
52187;DHT22;38161;53.020;6.598;2022-12-18T12:21:00;-2.50;99.90
52187;DHT22;38161;53.020;6.598;2022-12-18T12:26:10;-2.80;99.90
52187;DHT22;38161;53.020;6.598;2022-12-18T12:36:18;-2.40;99.90
52187;DHT22;38161;53.020;6.598;2022-12-18T12:38:58;-2.40;99.90
52187;DHT22;38161;53.020;6.598;2022-12-18T12:41:27;-2.30;99.90
52187;DHT22;38161;53.020;6.598;2022-12-18T12:44:24;-2.30;99.90
52187;DHT22;38161;53.020;6.598;2022-12-18T12:46:52;-2.30;99.90
52187;DHT22;38161;53.020;6.598;2022-12-18T12:49:21;-2.30;99.90
52187;DHT22;38161;53.020;6.598;2022-12-18T12:54:25;-2.20;99.90
52187;DHT22;38161;53.020;6.598;2022-12-18T13:00:10;-3.00;99.90
52187;DHT22;38161;53.020;6.598;2022-12-18T13:02:51;-2.10;99.90
52187;DHT22;38161;53.020;6.598;2022-12-18T13:05:22;-2.10;99.90
52187;DHT22;38161;53.020;6.598;2022-12-18T13:07:56;-2.00;99.90
52187;DHT22;38161;53.020;6.598;2022-12-18T13:10:31;-2.00;99.90
52187;DHT22;38161;53.020;6.598;2022-12-18T13:12:59;-2.00;99.90
52187;DHT22;38161;53.020;6.598;2022-12-18T13:15:44;-2.00;99.90
52187;DHT22;38161;53.020;6.598;2022-12-18T13:20:43;-1.90;99.90
52187;DHT22;38161;53.020;6.598;2022-12-18T13:33:43;-1.90;99.90
52187;DHT22;38161;53.020;6.598;2022-12-18T13:38:38;-1.90;99.90
52187;DHT22;38161;53.020;6.598;2022-12-18T13:43:34;-1.80;99.90
52187;DHT22;38161;53.020;6.598;2022-12-18T13:48:34;-1.80;99.90
52187;DHT22;38161;53.020;6.598;2022-12-18T13:51:06;-1.80;99.90
52187;DHT22;38161;53.020;6.598;2022-12-18T13:53:42;-1.10;99.90
52187;DHT22;38161;53.020;6.598;2022-12-18T13:56:08;-2.50;99.90
52187;DHT22;38161;53.020;6.598;2022-12-18T13:58:34;-1.70;99.90
52187;DHT22;38161;53.020;6.598;2022-12-18T14:01:00;-1.70;99.90
52187;DHT22;38161;53.020;6.598;2022-12-18T14:03:28;-1.70;99.90
52187;DHT22;38161;53.020;6.598;2022-12-18T14:06:07;-1.80;99.90
52187;DHT22;38161;53.020;6.598;2022-12-18T14:08:39;-1.80;99.90
52187;DHT22;38161;53.020;6.598;2022-12-18T14:11:07;-1.70;99.90
52187;DHT22;38161;53.020;6.598;2022-12-18T14:13:38;-1.80;99.90
52187;DHT22;38161;53.020;6.598;2022-12-18T14:16:06;-1.80;99.90
52187;DHT22;38161;53.020;6.598;2022-12-18T14:18:43;-1.80;99.90
52187;DHT22;38161;53.020;6.598;2022-12-18T14:21:36;-1.80;99.90
52187;DHT22;38161;53.020;6.598;2022-12-18T14:24:23;-1.80;99.90
52187;DHT22;38161;53.020;6.598;2022-12-18T14:26:49;-1.80;99.90
52187;DHT22;38161;53.020;6.598;2022-12-18T14:29:29;-1.80;99.90
52187;DHT22;38161;53.020;6.598;2022-12-18T14:32:11;-1.80;99.90
52187;DHT22;38161;53.020;6.598;2022-12-18T14:34:39;-1.90;99.90
52187;DHT22;38161;53.020;6.598;2022-12-18T14:37:08;-1.90;99.90
52187;DHT22;38161;53.020;6.598;2022-12-18T14:39:34;-1.90;99.90
52187;DHT22;38161;53.020;6.598;2022-12-18T14:42:00;-1.90;99.90
52187;DHT22;38161;53.020;6.598;2022-12-18T14:44:25;-1.90;99.90
52187;DHT22;38161;53.020;6.598;2022-12-18T14:46:51;-1.90;99.90
52187;DHT22;38161;53.020;6.598;2022-12-18T14:49:35;-1.90;99.90
52187;DHT22;38161;53.020;6.598;2022-12-18T14:52:04;-1.90;99.90
52187;DHT22;38161;53.020;6.598;2022-12-18T14:54:32;-2.00;99.90
52187;DHT22;38161;53.020;6.598;2022-12-18T14:57:03;-2.00;99.90
52187;DHT22;38161;53.020;6.598;2022-12-18T14:59:30;-1.40;99.90
52187;DHT22;38161;53.020;6.598;2022-12-18T15:02:15;-1.70;99.90
52187;DHT22;38161;53.020;6.598;2022-12-18T15:04:44;-2.00;99.90
52187;DHT22;38161;53.020;6.598;2022-12-18T15:09:41;-2.10;99.90
52187;DHT22;38161;53.020;6.598;2022-12-18T15:12:25;-2.10;99.90
52187;DHT22;38161;53.020;6.598;2022-12-18T15:14:52;-2.10;99.90
52187;DHT22;38161;53.020;6.598;2022-12-18T15:17:22;-2.10;99.90
52187;DHT22;38161;53.020;6.598;2022-12-18T15:19:51;-2.10;99.90
52187;DHT22;38161;53.020;6.598;2022-12-18T15:22:21;-2.20;99.90
52187;DHT22;38161;53.020;6.598;2022-12-18T15:24:47;-2.20;99.90
52187;DHT22;38161;53.020;6.598;2022-12-18T15:27:31;-2.20;99.90
52187;DHT22;38161;53.020;6.598;2022-12-18T15:32:39;-2.20;99.90
52187;DHT22;38161;53.020;6.598;2022-12-18T15:37:40;-2.20;99.90
52187;DHT22;38161;53.020;6.598;2022-12-18T15:40:07;-2.20;99.90
52187;DHT22;38161;53.020;6.598;2022-12-18T15:42:33;-2.30;99.90
52187;DHT22;38161;53.020;6.598;2022-12-18T15:45:18;-2.20;99.90
52187;DHT22;38161;53.020;6.598;2022-12-18T15:47:43;-2.30;99.90
52187;DHT22;38161;53.020;6.598;2022-12-18T15:50:10;-2.30;99.90
52187;DHT22;38161;53.020;6.598;2022-12-18T15:52:47;-2.30;99.90
52187;DHT22;38161;53.020;6.598;2022-12-18T15:55:15;-2.30;99.90
52187;DHT22;38161;53.020;6.598;2022-12-18T15:58:00;-1.80;99.90
52187;DHT22;38161;53.020;6.598;2022-12-18T16:00:26;-2.30;99.90
52187;DHT22;38161;53.020;6.598;2022-12-18T16:02:52;-2.30;99.90
52187;DHT22;38161;53.020;6.598;2022-12-18T16:05:19;-2.30;99.90
52187;DHT22;38161;53.020;6.598;2022-12-18T16:07:45;-2.30;99.90
52187;DHT22;38161;53.020;6.598;2022-12-18T16:10:12;-2.30;99.90
52187;DHT22;38161;53.020;6.598;2022-12-18T16:12:38;-2.30;99.90
52187;DHT22;38161;53.020;6.598;2022-12-18T16:15:04;-2.30;99.90
52187;DHT22;38161;53.020;6.598;2022-12-18T16:17:30;-2.30;99.90
52187;DHT22;38161;53.020;6.598;2022-12-18T16:19:56;-2.30;99.90
52187;DHT22;38161;53.020;6.598;2022-12-18T16:22:24;-2.30;99.90
52187;DHT22;38161;53.020;6.598;2022-12-18T16:24:52;-2.30;99.90
52187;DHT22;38161;53.020;6.598;2022-12-18T16:27:18;-2.30;99.90
52187;DHT22;38161;53.020;6.598;2022-12-18T16:29:44;-2.30;99.90
52187;DHT22;38161;53.020;6.598;2022-12-18T16:32:16;-2.30;99.90
52187;DHT22;38161;53.020;6.598;2022-12-18T16:34:43;-2.30;99.90
52187;DHT22;38161;53.020;6.598;2022-12-18T16:37:11;-2.30;99.90
52187;DHT22;38161;53.020;6.598;2022-12-18T16:39:37;-2.30;99.90
52187;DHT22;38161;53.020;6.598;2022-12-18T16:42:11;-2.30;99.90
52187;DHT22;38161;53.020;6.598;2022-12-18T16:44:40;-1.90;99.90
52187;DHT22;38161;53.020;6.598;2022-12-18T16:47:05;-2.20;99.90
52187;DHT22;38161;53.020;6.598;2022-12-18T16:49:34;-2.20;99.90
52187;DHT22;38161;53.020;6.598;2022-12-18T16:52:00;-2.20;99.90
52187;DHT22;38161;53.020;6.598;2022-12-18T16:54:25;-2.20;99.90
52187;DHT22;38161;53.020;6.598;2022-12-18T16:56:54;-2.20;99.90
52187;DHT22;38161;53.020;6.598;2022-12-18T16:59:20;-2.20;99.90
52187;DHT22;38161;53.020;6.598;2022-12-18T17:01:46;-2.20;99.90
52187;DHT22;38161;53.020;6.598;2022-12-18T17:04:12;-2.10;99.90
52187;DHT22;38161;53.020;6.598;2022-12-18T17:06:40;-2.10;99.90
52187;DHT22;38161;53.020;6.598;2022-12-18T17:09:09;-2.10;99.90
52187;DHT22;38161;53.020;6.598;2022-12-18T17:11:35;-2.10;99.90
52187;DHT22;38161;53.020;6.598;2022-12-18T17:14:14;-2.10;99.90
52187;DHT22;38161;53.020;6.598;2022-12-18T17:16:40;-2.10;99.90
52187;DHT22;38161;53.020;6.598;2022-12-18T17:19:06;-2.10;99.90
52187;DHT22;38161;53.020;6.598;2022-12-18T17:21:32;-2.10;99.90
52187;DHT22;38161;53.020;6.598;2022-12-18T17:24:01;-2.00;99.90
52187;DHT22;38161;53.020;6.598;2022-12-18T17:26:28;-2.10;99.90
52187;DHT22;38161;53.020;6.598;2022-12-18T17:28:58;-2.00;99.90
52187;DHT22;38161;53.020;6.598;2022-12-18T17:31:26;-2.00;99.90
52187;DHT22;38161;53.020;6.598;2022-12-18T17:33:53;-2.00;99.90
52187;DHT22;38161;53.020;6.598;2022-12-18T17:36:19;-2.00;99.90
52187;DHT22;38161;53.020;6.598;2022-12-18T17:38:52;-2.00;99.90
52187;DHT22;38161;53.020;6.598;2022-12-18T17:41:18;-2.00;99.90
52187;DHT22;38161;53.020;6.598;2022-12-18T17:43:53;-1.90;99.90
52187;DHT22;38161;53.020;6.598;2022-12-18T17:46:19;-2.00;99.90
52187;DHT22;38161;53.020;6.598;2022-12-18T17:48:46;-2.00;99.90